sensor_id;sensor_type;location;lat;lon;timestamp;pressure;altitude;pressure_sealevel;temperature;humidity
76586;BME280;65251;51.022;13.736;2022-12-18T00:00:24;100848.38;;;-5.80;75.29
76586;BME280;65251;51.022;13.736;2022-12-18T00:00:55;100843.09;;;-5.79;75.33
76586;BME280;65251;51.022;13.736;2022-12-18T00:01:28;100840.38;;;-5.76;76.13
76586;BME280;65251;51.022;13.736;2022-12-18T00:02:01;100839.47;;;-5.75;75.68
76586;BME280;65251;51.022;13.736;2022-12-18T00:02:32;100844.03;;;-5.80;75.84
76586;BME280;65251;51.022;13.736;2022-12-18T00:03:04;100843.81;;;-5.75;75.82
76586;BME280;65251;51.022;13.736;2022-12-18T00:03:35;100842.91;;;-5.74;76.53
76586;BME280;65251;51.022;13.736;2022-12-18T00:04:11;100835.13;;;-5.74;76.89
76586;BME280;65251;51.022;13.736;2022-12-18T00:04:45;100847.06;;;-5.70;76.87
76586;BME280;65251;51.022;13.736;2022-12-18T00:05:17;100846.13;;;-5.68;76.83
76586;BME280;65251;51.022;13.736;2022-12-18T00:05:48;100846.06;;;-5.66;76.84
76586;BME280;65251;51.022;13.736;2022-12-18T00:06:19;100846.84;;;-5.64;76.51
76586;BME280;65251;51.022;13.736;2022-12-18T00:06:51;100831.31;;;-5.66;77.22
76586;BME280;65251;51.022;13.736;2022-12-18T00:07:23;100845.03;;;-5.62;77.15
76586;BME280;65251;51.022;13.736;2022-12-18T00:07:54;100844.97;;;-5.61;76.39
76586;BME280;65251;51.022;13.736;2022-12-18T00:08:24;100843.22;;;-5.60;76.06
76586;BME280;65251;51.022;13.736;2022-12-18T00:08:58;100841.47;;;-5.60;76.34
76586;BME280;65251;51.022;13.736;2022-12-18T00:09:29;100844.88;;;-5.59;75.54
76586;BME280;65251;51.022;13.736;2022-12-18T00:10:00;100845.66;;;-5.57;75.48
76586;BME280;65251;51.022;13.736;2022-12-18T00:10:33;100850.00;;;-5.58;75.31
76586;BME280;65251;51.022;13.736;2022-12-18T00:11:04;100846.72;;;-5.61;74.84
76586;BME280;65251;51.022;13.736;2022-12-18T00:11:35;100846.72;;;-5.61;75.33
76586;BME280;65251;51.022;13.736;2022-12-18T00:12:07;100854.56;;;-5.63;75.16
76586;BME280;65251;51.022;13.736;2022-12-18T00:12:39;100852.75;;;-5.61;74.95
76586;BME280;65251;51.022;13.736;2022-12-18T00:13:10;100847.69;;;-5.64;74.77
76586;BME280;65251;51.022;13.736;2022-12-18T00:13:42;100855.53;;;-5.65;74.96
76586;BME280;65251;51.022;13.736;2022-12-18T00:14:14;100857.22;;;-5.64;74.93
76586;BME280;65251;51.022;13.736;2022-12-18T00:14:45;100857.34;;;-5.67;75.13
76586;BME280;65251;51.022;13.736;2022-12-18T00:15:16;100862.53;;;-5.67;74.98
76586;BME280;65251;51.022;13.736;2022-12-18T00:15:48;100862.53;;;-5.67;75.28
76586;BME280;65251;51.022;13.736;2022-12-18T00:16:21;100850.53;;;-5.70;75.42
76586;BME280;65251;51.022;13.736;2022-12-18T00:16:52;100865.97;;;-5.67;75.59
76586;BME280;65251;51.022;13.736;2022-12-18T00:17:24;100865.13;;;-5.67;75.99
76586;BME280;65251;51.022;13.736;2022-12-18T00:17:55;100861.69;;;-5.68;76.48
76586;BME280;65251;51.022;13.736;2022-12-18T00:18:25;100861.75;;;-5.69;76.42
76586;BME280;65251;51.022;13.736;2022-12-18T00:18:57;100866.09;;;-5.70;75.92
76586;BME280;65251;51.022;13.736;2022-12-18T00:19:28;100871.22;;;-5.68;76.19
76586;BME280;65251;51.022;13.736;2022-12-18T00:19:58;100871.41;;;-5.73;76.34
76586;BME280;65251;51.022;13.736;2022-12-18T00:20:30;100867.19;;;-5.75;76.16
76586;BME280;65251;51.022;13.736;2022-12-18T00:21:04;100867.25;;;-5.77;76.15
76586;BME280;65251;51.022;13.736;2022-12-18T00:21:35;100869.91;;;-5.78;76.08
76586;BME280;65251;51.022;13.736;2022-12-18T00:22:06;100874.78;;;-5.71;75.99
76586;BME280;65251;51.022;13.736;2022-12-18T00:22:37;100870.44;;;-5.70;76.11
76586;BME280;65251;51.022;13.736;2022-12-18T00:23:09;100865.59;;;-5.79;76.85
76586;BME280;65251;51.022;13.736;2022-12-18T00:23:42;100875.22;;;-5.81;76.82
76586;BME280;65251;51.022;13.736;2022-12-18T00:24:13;100874.38;;;-5.82;76.96
76586;BME280;65251;51.022;13.736;2022-12-18T00:24:44;100872.75;;;-5.84;77.18
76586;BME280;65251;51.022;13.736;2022-12-18T00:25:15;100875.28;;;-5.83;76.77
76586;BME280;65251;51.022;13.736;2022-12-18T00:25:47;100866.44;;;-5.79;76.93
76586;BME280;65251;51.022;13.736;2022-12-18T00:26:20;100858.75;;;-5.80;77.29
76586;BME280;65251;51.022;13.736;2022-12-18T00:26:52;100868.81;;;-5.73;77.11
76586;BME280;65251;51.022;13.736;2022-12-18T00:27:24;100869.47;;;-5.68;77.20
76586;BME280;65251;51.022;13.736;2022-12-18T00:27:55;100868.50;;;-5.65;77.37
76586;BME280;65251;51.022;13.736;2022-12-18T00:28:26;100870.81;;;-5.59;77.21
76586;BME280;65251;51.022;13.736;2022-12-18T00:28:58;100863.97;;;-5.60;76.61
76586;BME280;65251;51.022;13.736;2022-12-18T00:29:30;100864.88;;;-5.61;76.90
76586;BME280;65251;51.022;13.736;2022-12-18T00:30:01;100867.41;;;-5.60;77.10
76586;BME280;65251;51.022;13.736;2022-12-18T00:30:32;100863.97;;;-5.60;76.83
76586;BME280;65251;51.022;13.736;2022-12-18T00:31:06;100863.81;;;-5.57;77.25
76586;BME280;65251;51.022;13.736;2022-12-18T00:31:38;100866.31;;;-5.54;77.17
76586;BME280;65251;51.022;13.736;2022-12-18T00:32:09;100869.16;;;-5.60;77.29
76586;BME280;65251;51.022;13.736;2022-12-18T00:32:40;100875.06;;;-5.57;76.96
76586;BME280;65251;51.022;13.736;2022-12-18T00:33:11;100868.97;;;-5.56;77.17
76586;BME280;65251;51.022;13.736;2022-12-18T00:33:42;100864.72;;;-5.58;76.93
76586;BME280;65251;51.022;13.736;2022-12-18T00:34:13;100874.38;;;-5.60;76.75
76586;BME280;65251;51.022;13.736;2022-12-18T00:34:45;100870.97;;;-5.62;77.36
76586;BME280;65251;51.022;13.736;2022-12-18T00:35:16;100870.81;;;-5.59;77.24
76586;BME280;65251;51.022;13.736;2022-12-18T00:35:47;100867.59;;;-5.64;76.68
76586;BME280;65251;51.022;13.736;2022-12-18T00:36:21;100873.63;;;-5.64;76.37
76586;BME280;65251;51.022;13.736;2022-12-18T00:36:52;100871.03;;;-5.64;76.20
76586;BME280;65251;51.022;13.736;2022-12-18T00:37:22;100874.66;;;-5.68;76.56
76586;BME280;65251;51.022;13.736;2022-12-18T00:37:54;100869.53;;;-5.69;76.23
76586;BME280;65251;51.022;13.736;2022-12-18T00:38:25;100870.75;;;-5.78;76.10
76586;BME280;65251;51.022;13.736;2022-12-18T00:38:57;100866.53;;;-5.80;76.25
76586;BME280;65251;51.022;13.736;2022-12-18T00:39:28;100876.13;;;-5.82;75.87
76586;BME280;65251;51.022;13.736;2022-12-18T00:40:00;100883.06;;;-5.83;75.31
76586;BME280;65251;51.022;13.736;2022-12-18T00:40:31;100883.41;;;-5.91;75.50
76586;BME280;65251;51.022;13.736;2022-12-18T00:41:04;100881.66;;;-5.90;76.06
76586;BME280;65251;51.022;13.736;2022-12-18T00:41:35;100880.81;;;-5.91;75.90
76586;BME280;65251;51.022;13.736;2022-12-18T00:42:24;100885.16;;;-5.91;75.59
76586;BME280;65251;51.022;13.736;2022-12-18T00:43:13;100881.66;;;-5.90;75.54
76586;BME280;65251;51.022;13.736;2022-12-18T00:43:44;100885.84;;;-5.87;75.52
76586;BME280;65251;51.022;13.736;2022-12-18T00:44:17;100886.84;;;-5.90;75.34
76586;BME280;65251;51.022;13.736;2022-12-18T00:44:48;100892.72;;;-5.86;75.42
76586;BME280;65251;51.022;13.736;2022-12-18T00:45:19;100893.63;;;-5.87;75.16
76586;BME280;65251;51.022;13.736;2022-12-18T00:45:50;100886.06;;;-5.92;75.07
76586;BME280;65251;51.022;13.736;2022-12-18T00:46:22;100891.31;;;-5.94;75.13
76586;BME280;65251;51.022;13.736;2022-12-18T00:46:52;100893.91;;;-5.94;75.64
76586;BME280;65251;51.022;13.736;2022-12-18T00:47:23;100887.06;;;-5.96;75.71
76586;BME280;65251;51.022;13.736;2022-12-18T00:47:54;100892.53;;;-6.02;76.39
76586;BME280;65251;51.022;13.736;2022-12-18T00:48:26;100887.34;;;-6.02;77.25
76586;BME280;65251;51.022;13.736;2022-12-18T00:48:57;100894.41;;;-6.06;77.31
76586;BME280;65251;51.022;13.736;2022-12-18T00:49:28;100894.44;;;-6.07;77.41
76586;BME280;65251;51.022;13.736;2022-12-18T00:50:00;100894.63;;;-6.12;77.38
76586;BME280;65251;51.022;13.736;2022-12-18T00:50:30;100892.19;;;-6.16;77.79
76586;BME280;65251;51.022;13.736;2022-12-18T00:51:01;100895.59;;;-6.14;77.34
76586;BME280;65251;51.022;13.736;2022-12-18T00:51:32;100897.16;;;-6.10;77.29
76586;BME280;65251;51.022;13.736;2022-12-18T00:52:04;100898.19;;;-6.14;76.91
76586;BME280;65251;51.022;13.736;2022-12-18T00:52:34;100892.09;;;-6.13;77.25
76586;BME280;65251;51.022;13.736;2022-12-18T00:53:05;100891.91;;;-6.09;77.65
76586;BME280;65251;51.022;13.736;2022-12-18T00:53:37;100891.06;;;-6.09;77.85
76586;BME280;65251;51.022;13.736;2022-12-18T00:54:08;100894.69;;;-6.13;78.40
76586;BME280;65251;51.022;13.736;2022-12-18T00:54:38;100888.66;;;-6.14;78.23
76586;BME280;65251;51.022;13.736;2022-12-18T00:55:11;100891.13;;;-6.11;77.02
76586;BME280;65251;51.022;13.736;2022-12-18T00:55:42;100884.19;;;-6.10;76.76
76586;BME280;65251;51.022;13.736;2022-12-18T00:56:14;100890.97;;;-6.06;78.08
76586;BME280;65251;51.022;13.736;2022-12-18T00:56:45;100884.81;;;-6.04;78.24
76586;BME280;65251;51.022;13.736;2022-12-18T00:57:16;100888.13;;;-6.00;78.27
76586;BME280;65251;51.022;13.736;2022-12-18T00:57:47;100886.63;;;-6.06;77.46
76586;BME280;65251;51.022;13.736;2022-12-18T00:58:18;100884.06;;;-6.07;77.53
76586;BME280;65251;51.022;13.736;2022-12-18T00:58:49;100884.88;;;-6.05;77.22
76586;BME280;65251;51.022;13.736;2022-12-18T00:59:21;100887.69;;;-6.11;76.70
76586;BME280;65251;51.022;13.736;2022-12-18T00:59:52;100888.69;;;-6.15;76.80
76586;BME280;65251;51.022;13.736;2022-12-18T01:00:22;100880.13;;;-6.17;77.36
76586;BME280;65251;51.022;13.736;2022-12-18T01:00:54;100890.66;;;-6.20;77.65
76586;BME280;65251;51.022;13.736;2022-12-18T01:01:25;100887.22;;;-6.21;77.66
76586;BME280;65251;51.022;13.736;2022-12-18T01:01:55;100895.22;;;-6.27;77.11
76586;BME280;65251;51.022;13.736;2022-12-18T01:02:27;100890.16;;;-6.30;77.54
76586;BME280;65251;51.022;13.736;2022-12-18T01:02:58;100892.00;;;-6.34;78.53
76586;BME280;65251;51.022;13.736;2022-12-18T01:03:29;100895.75;;;-6.41;78.56
76586;BME280;65251;51.022;13.736;2022-12-18T01:04:02;100891.75;;;-6.49;77.66
76586;BME280;65251;51.022;13.736;2022-12-18T01:04:34;100897.56;;;-6.43;77.63
76586;BME280;65251;51.022;13.736;2022-12-18T01:05:05;100895.59;;;-6.38;77.43
76586;BME280;65251;51.022;13.736;2022-12-18T01:05:39;100898.25;;;-6.39;77.74
76586;BME280;65251;51.022;13.736;2022-12-18T01:06:12;100892.38;;;-6.43;77.55
76586;BME280;65251;51.022;13.736;2022-12-18T01:06:43;100899.31;;;-6.43;78.27
76586;BME280;65251;51.022;13.736;2022-12-18T01:07:15;100898.56;;;-6.47;77.37
76586;BME280;65251;51.022;13.736;2022-12-18T01:07:46;100901.31;;;-6.51;76.95
76586;BME280;65251;51.022;13.736;2022-12-18T01:08:16;100915.97;;;-6.50;77.16
76586;BME280;65251;51.022;13.736;2022-12-18T01:08:47;100907.63;;;-6.58;77.27
76586;BME280;65251;51.022;13.736;2022-12-18T01:09:19;100911.06;;;-6.58;77.52
76586;BME280;65251;51.022;13.736;2022-12-18T01:09:50;100909.31;;;-6.57;77.19
76586;BME280;65251;51.022;13.736;2022-12-18T01:10:20;100900.78;;;-6.59;77.82
76586;BME280;65251;51.022;13.736;2022-12-18T01:10:52;100906.72;;;-6.57;78.38
76586;BME280;65251;51.022;13.736;2022-12-18T01:11:25;100900.63;;;-6.56;78.43
76586;BME280;65251;51.022;13.736;2022-12-18T01:11:55;100910.06;;;-6.54;77.62
76586;BME280;65251;51.022;13.736;2022-12-18T01:12:27;100900.47;;;-6.52;77.56
76586;BME280;65251;51.022;13.736;2022-12-18T01:12:58;100906.50;;;-6.51;77.29
76586;BME280;65251;51.022;13.736;2022-12-18T01:13:29;100905.56;;;-6.49;77.57
76586;BME280;65251;51.022;13.736;2022-12-18T01:14:00;100903.75;;;-6.47;77.76
76586;BME280;65251;51.022;13.736;2022-12-18T01:14:31;100914.84;;;-6.43;77.26
76586;BME280;65251;51.022;13.736;2022-12-18T01:15:05;100904.50;;;-6.43;76.75
76586;BME280;65251;51.022;13.736;2022-12-18T01:15:36;100907.97;;;-6.44;76.09
76586;BME280;65251;51.022;13.736;2022-12-18T01:16:08;100898.50;;;-6.45;77.08
76586;BME280;65251;51.022;13.736;2022-12-18T01:16:40;100909.66;;;-6.43;77.37
76586;BME280;65251;51.022;13.736;2022-12-18T01:17:10;100907.19;;;-6.46;75.74
76586;BME280;65251;51.022;13.736;2022-12-18T01:17:41;100907.47;;;-6.54;76.10
76586;BME280;65251;51.022;13.736;2022-12-18T01:18:13;100914.44;;;-6.56;75.43
76586;BME280;65251;51.022;13.736;2022-12-18T01:18:44;100912.88;;;-6.60;76.12
76586;BME280;65251;51.022;13.736;2022-12-18T01:19:15;100904.47;;;-6.67;76.93
76586;BME280;65251;51.022;13.736;2022-12-18T01:19:47;100914.78;;;-6.65;77.32
76586;BME280;65251;51.022;13.736;2022-12-18T01:20:18;100908.06;;;-6.71;77.74
76586;BME280;65251;51.022;13.736;2022-12-18T01:20:48;100915.00;;;-6.71;77.56
76586;BME280;65251;51.022;13.736;2022-12-18T01:21:22;100904.66;;;-6.71;77.59
76586;BME280;65251;51.022;13.736;2022-12-18T01:21:52;100914.09;;;-6.70;77.75
76586;BME280;65251;51.022;13.736;2022-12-18T01:22:23;100905.44;;;-6.69;76.67
76586;BME280;65251;51.022;13.736;2022-12-18T01:22:55;100909.63;;;-6.65;76.77
76586;BME280;65251;51.022;13.736;2022-12-18T01:23:25;100901.78;;;-6.64;76.50
76586;BME280;65251;51.022;13.736;2022-12-18T01:23:56;100910.47;;;-6.65;76.95
76586;BME280;65251;51.022;13.736;2022-12-18T01:24:28;100908.66;;;-6.63;77.48
76586;BME280;65251;51.022;13.736;2022-12-18T01:24:59;100910.34;;;-6.62;76.54
76586;BME280;65251;51.022;13.736;2022-12-18T01:25:30;100910.22;;;-6.58;76.56
76586;BME280;65251;51.022;13.736;2022-12-18T01:26:05;100903.38;;;-6.59;76.53
76586;BME280;65251;51.022;13.736;2022-12-18T01:26:38;100911.97;;;-6.59;75.89
76586;BME280;65251;51.022;13.736;2022-12-18T01:27:09;100910.94;;;-6.55;76.13
76586;BME280;65251;51.022;13.736;2022-12-18T01:27:40;100912.75;;;-6.57;76.03
76586;BME280;65251;51.022;13.736;2022-12-18T01:28:11;100919.69;;;-6.57;75.86
76586;BME280;65251;51.022;13.736;2022-12-18T01:28:43;100917.09;;;-6.57;76.60
76586;BME280;65251;51.022;13.736;2022-12-18T01:29:14;100920.47;;;-6.55;76.20
76586;BME280;65251;51.022;13.736;2022-12-18T01:29:45;100920.47;;;-6.55;77.04
76586;BME280;65251;51.022;13.736;2022-12-18T01:30:16;100915.34;;;-6.57;75.99
76586;BME280;65251;51.022;13.736;2022-12-18T01:30:47;100912.81;;;-6.58;75.49
76586;BME280;65251;51.022;13.736;2022-12-18T01:31:21;100923.31;;;-6.62;75.71
76586;BME280;65251;51.022;13.736;2022-12-18T01:31:54;100918.06;;;-6.60;76.30
76586;BME280;65251;51.022;13.736;2022-12-18T01:32:25;100916.50;;;-6.64;76.09
76586;BME280;65251;51.022;13.736;2022-12-18T01:32:56;100915.00;;;-6.71;76.31
76586;BME280;65251;51.022;13.736;2022-12-18T01:33:28;100913.41;;;-6.75;77.47
76586;BME280;65251;51.022;13.736;2022-12-18T01:34:00;100912.69;;;-6.79;77.18
76586;BME280;65251;51.022;13.736;2022-12-18T01:34:32;100911.97;;;-6.82;77.42
76586;BME280;65251;51.022;13.736;2022-12-18T01:35:03;100912.03;;;-6.84;77.29
76586;BME280;65251;51.022;13.736;2022-12-18T01:35:40;100915.63;;;-6.88;77.25
76586;BME280;65251;51.022;13.736;2022-12-18T01:36:19;100922.66;;;-6.91;78.49
76586;BME280;65251;51.022;13.736;2022-12-18T01:36:50;100919.31;;;-6.95;78.89
76586;BME280;65251;51.022;13.736;2022-12-18T01:37:23;100921.00;;;-6.94;78.37
76586;BME280;65251;51.022;13.736;2022-12-18T01:37:54;100922.91;;;-6.99;79.53
76586;BME280;65251;51.022;13.736;2022-12-18T01:38:25;100920.22;;;-6.96;79.48
76586;BME280;65251;51.022;13.736;2022-12-18T01:38:59;100922.75;;;-6.95;78.33
76586;BME280;65251;51.022;13.736;2022-12-18T01:39:31;100916.63;;;-6.92;78.99
76586;BME280;65251;51.022;13.736;2022-12-18T01:40:02;100917.50;;;-6.93;78.28
76586;BME280;65251;51.022;13.736;2022-12-18T01:40:34;100921.00;;;-6.94;78.15
76586;BME280;65251;51.022;13.736;2022-12-18T01:41:05;100916.78;;;-6.97;78.48
76586;BME280;65251;51.022;13.736;2022-12-18T01:41:36;100914.78;;;-6.88;77.40
76586;BME280;65251;51.022;13.736;2022-12-18T01:42:23;100914.78;;;-6.88;77.38
76586;BME280;65251;51.022;13.736;2022-12-18T01:42:56;100904.47;;;-6.90;77.07
76586;BME280;65251;51.022;13.736;2022-12-18T01:43:45;100907.91;;;-6.89;77.49
76586;BME280;65251;51.022;13.736;2022-12-18T01:44:58;100902.59;;;-6.86;77.72
76586;BME280;65251;51.022;13.736;2022-12-18T01:45:31;100905.31;;;-6.89;78.19
76586;BME280;65251;51.022;13.736;2022-12-18T01:46:02;100906.41;;;-6.97;78.98
76586;BME280;65251;51.022;13.736;2022-12-18T01:46:33;100901.41;;;-7.01;78.73
76586;BME280;65251;51.022;13.736;2022-12-18T01:47:05;100903.22;;;-7.03;78.79
76586;BME280;65251;51.022;13.736;2022-12-18T01:47:39;100903.97;;;-7.00;79.28
76586;BME280;65251;51.022;13.736;2022-12-18T01:48:10;100906.41;;;-6.97;78.81
76586;BME280;65251;51.022;13.736;2022-12-18T01:48:44;100905.31;;;-6.89;78.71
76586;BME280;65251;51.022;13.736;2022-12-18T01:49:15;100902.72;;;-6.89;77.96
76586;BME280;65251;51.022;13.736;2022-12-18T01:49:46;100903.34;;;-6.83;77.63
76586;BME280;65251;51.022;13.736;2022-12-18T01:50:20;100911.03;;;-6.80;77.86
76586;BME280;65251;51.022;13.736;2022-12-18T01:50:52;100906.75;;;-6.81;78.47
76586;BME280;65251;51.022;13.736;2022-12-18T01:51:24;100901.41;;;-6.78;78.47
76586;BME280;65251;51.022;13.736;2022-12-18T01:51:57;100909.13;;;-6.76;77.80
76586;BME280;65251;51.022;13.736;2022-12-18T01:52:31;100906.50;;;-6.75;76.77
76586;BME280;65251;51.022;13.736;2022-12-18T01:53:06;100916.91;;;-6.76;76.77
76586;BME280;65251;51.022;13.736;2022-12-18T01:53:41;100910.78;;;-6.74;76.91
76586;BME280;65251;51.022;13.736;2022-12-18T01:54:13;100908.94;;;-6.70;76.78
76586;BME280;65251;51.022;13.736;2022-12-18T01:54:45;100906.44;;;-6.73;75.61
76586;BME280;65251;51.022;13.736;2022-12-18T01:55:20;100903.00;;;-6.74;75.53
76586;BME280;65251;51.022;13.736;2022-12-18T01:55:56;100907.28;;;-6.73;75.15
76586;BME280;65251;51.022;13.736;2022-12-18T01:56:27;100911.84;;;-6.79;75.61
76586;BME280;65251;51.022;13.736;2022-12-18T01:56:59;100912.53;;;-6.74;75.55
76586;BME280;65251;51.022;13.736;2022-12-18T01:57:32;100913.38;;;-6.74;75.99
76586;BME280;65251;51.022;13.736;2022-12-18T01:58:04;100916.91;;;-6.76;76.84
76586;BME280;65251;51.022;13.736;2022-12-18T01:58:50;100914.50;;;-6.81;76.15
76586;BME280;65251;51.022;13.736;2022-12-18T01:59:23;100909.44;;;-6.84;76.55
76586;BME280;65251;51.022;13.736;2022-12-18T01:59:59;100914.50;;;-6.81;77.66
76586;BME280;65251;51.022;13.736;2022-12-18T02:00:31;100917.94;;;-6.80;78.26
76586;BME280;65251;51.022;13.736;2022-12-18T02:01:02;100912.69;;;-6.79;78.62
76586;BME280;65251;51.022;13.736;2022-12-18T02:01:36;100916.25;;;-6.81;78.55
76586;BME280;65251;51.022;13.736;2022-12-18T02:02:08;100908.69;;;-6.87;77.80
76586;BME280;65251;51.022;13.736;2022-12-18T02:02:40;100920.84;;;-6.89;78.03
76586;BME280;65251;51.022;13.736;2022-12-18T02:03:12;100920.00;;;-6.90;77.96
76586;BME280;65251;51.022;13.736;2022-12-18T02:03:44;100920.16;;;-6.95;77.60
76586;BME280;65251;51.022;13.736;2022-12-18T02:04:20;100913.22;;;-6.94;77.97
76586;BME280;65251;51.022;13.736;2022-12-18T02:04:52;100922.78;;;-6.96;78.43
76586;BME280;65251;51.022;13.736;2022-12-18T02:05:34;100920.44;;;-7.02;78.06
76586;BME280;65251;51.022;13.736;2022-12-18T02:06:15;100922.25;;;-7.04;78.26
76586;BME280;65251;51.022;13.736;2022-12-18T02:06:52;100924.97;;;-7.09;77.76
76586;BME280;65251;51.022;13.736;2022-12-18T02:07:34;100923.97;;;-7.05;77.86
76586;BME280;65251;51.022;13.736;2022-12-18T02:08:14;100927.41;;;-7.04;78.70
76586;BME280;65251;51.022;13.736;2022-12-18T02:08:58;100927.53;;;-7.07;78.70
76586;BME280;65251;51.022;13.736;2022-12-18T02:09:38;100921.53;;;-7.09;78.59
76586;BME280;65251;51.022;13.736;2022-12-18T02:10:18;100924.34;;;-7.15;77.17
76586;BME280;65251;51.022;13.736;2022-12-18T02:11:00;100924.50;;;-7.20;77.79
76586;BME280;65251;51.022;13.736;2022-12-18T02:11:45;100931.34;;;-7.19;77.52
76586;BME280;65251;51.022;13.736;2022-12-18T02:12:20;100927.88;;;-7.18;77.75
76586;BME280;65251;51.022;13.736;2022-12-18T02:13:02;100921.69;;;-7.14;77.78
76586;BME280;65251;51.022;13.736;2022-12-18T02:13:46;100921.53;;;-7.09;77.56
76586;BME280;65251;51.022;13.736;2022-12-18T02:14:28;100926.56;;;-7.05;76.24
76586;BME280;65251;51.022;13.736;2022-12-18T02:15:12;100921.34;;;-7.03;75.36
76586;BME280;65251;51.022;13.736;2022-12-18T02:15:54;100916.09;;;-7.02;75.36
76586;BME280;65251;51.022;13.736;2022-12-18T02:16:37;100917.81;;;-7.01;75.28
76586;BME280;65251;51.022;13.736;2022-12-18T02:17:16;100914.66;;;-7.10;74.97
76586;BME280;65251;51.022;13.736;2022-12-18T02:17:53;100910.63;;;-7.19;75.66
76586;BME280;65251;51.022;13.736;2022-12-18T02:18:31;100912.41;;;-7.19;76.74
76586;BME280;65251;51.022;13.736;2022-12-18T02:19:16;100914.31;;;-7.24;77.30
76586;BME280;65251;51.022;13.736;2022-12-18T02:20:05;100912.59;;;-7.25;77.86
76586;BME280;65251;51.022;13.736;2022-12-18T02:20:45;100904.03;;;-7.27;77.71
76586;BME280;65251;51.022;13.736;2022-12-18T02:21:28;100908.97;;;-7.20;77.82
76586;BME280;65251;51.022;13.736;2022-12-18T02:22:17;100917.47;;;-7.16;77.13
76586;BME280;65251;51.022;13.736;2022-12-18T02:23:05;100920.00;;;-7.15;77.35
76586;BME280;65251;51.022;13.736;2022-12-18T02:23:47;100916.50;;;-7.14;77.44
76586;BME280;65251;51.022;13.736;2022-12-18T02:24:32;100919.81;;;-7.09;76.96
76586;BME280;65251;51.022;13.736;2022-12-18T02:25:19;100920.66;;;-7.08;75.96
76586;BME280;65251;51.022;13.736;2022-12-18T02:26:07;100915.56;;;-7.11;76.22
76586;BME280;65251;51.022;13.736;2022-12-18T02:26:46;100921.50;;;-7.08;76.27
76586;BME280;65251;51.022;13.736;2022-12-18T02:27:19;100917.94;;;-7.05;75.92
76586;BME280;65251;51.022;13.736;2022-12-18T02:27:52;100921.34;;;-7.03;75.87
76586;BME280;65251;51.022;13.736;2022-12-18T02:28:30;100917.94;;;-7.05;76.28
76586;BME280;65251;51.022;13.736;2022-12-18T02:29:08;100921.34;;;-7.03;75.78
76586;BME280;65251;51.022;13.736;2022-12-18T02:29:46;100916.31;;;-7.08;75.17
76586;BME280;65251;51.022;13.736;2022-12-18T02:30:20;100928.31;;;-7.05;75.41
76586;BME280;65251;51.022;13.736;2022-12-18T02:30:56;100929.97;;;-7.03;74.85
76586;BME280;65251;51.022;13.736;2022-12-18T02:31:34;100925.56;;;-7.01;75.46
76586;BME280;65251;51.022;13.736;2022-12-18T02:32:12;100929.06;;;-7.02;75.18
76586;BME280;65251;51.022;13.736;2022-12-18T02:32:50;100933.41;;;-7.02;74.80
76586;BME280;65251;51.022;13.736;2022-12-18T02:33:25;100931.75;;;-7.05;75.62
76586;BME280;65251;51.022;13.736;2022-12-18T02:34:02;100929.16;;;-7.05;74.74
76586;BME280;65251;51.022;13.736;2022-12-18T02:34:38;100935.97;;;-7.02;75.42
76586;BME280;65251;51.022;13.736;2022-12-18T02:35:13;100927.41;;;-7.04;74.54
76586;BME280;65251;51.022;13.736;2022-12-18T02:35:46;100936.09;;;-7.05;74.75
76586;BME280;65251;51.022;13.736;2022-12-18T02:36:20;100931.75;;;-7.05;74.73
76586;BME280;65251;51.022;13.736;2022-12-18T02:36:55;100934.34;;;-7.05;75.18
76586;BME280;65251;51.022;13.736;2022-12-18T02:37:30;100935.13;;;-7.03;75.17
76586;BME280;65251;51.022;13.736;2022-12-18T02:38:04;100935.84;;;-6.99;75.44
76586;BME280;65251;51.022;13.736;2022-12-18T02:38:36;100934.09;;;-6.99;74.71
76586;BME280;65251;51.022;13.736;2022-12-18T02:39:11;100936.78;;;-7.00;75.62
76586;BME280;65251;51.022;13.736;2022-12-18T02:39:47;100929.72;;;-6.97;75.77
76586;BME280;65251;51.022;13.736;2022-12-18T02:40:22;100932.22;;;-6.93;75.48
76586;BME280;65251;51.022;13.736;2022-12-18T02:40:54;100936.44;;;-6.91;75.58
76586;BME280;65251;51.022;13.736;2022-12-18T02:41:28;100928.66;;;-6.91;75.12
76586;BME280;65251;51.022;13.736;2022-12-18T02:42:01;100935.53;;;-6.90;74.76
76586;BME280;65251;51.022;13.736;2022-12-18T02:42:38;100931.38;;;-6.94;75.40
76586;BME280;65251;51.022;13.736;2022-12-18T02:43:11;100916.78;;;-6.97;75.14
76586;BME280;65251;51.022;13.736;2022-12-18T02:43:46;100925.34;;;-6.95;75.61
76586;BME280;65251;51.022;13.736;2022-12-18T02:44:17;100920.91;;;-6.91;75.63
76586;BME280;65251;51.022;13.736;2022-12-18T02:44:50;100927.81;;;-6.91;75.88
76586;BME280;65251;51.022;13.736;2022-12-18T02:45:22;100920.06;;;-6.91;75.80
76586;BME280;65251;51.022;13.736;2022-12-18T02:45:56;100919.09;;;-6.89;75.94
76586;BME280;65251;51.022;13.736;2022-12-18T02:46:32;100921.63;;;-6.87;76.11
76586;BME280;65251;51.022;13.736;2022-12-18T02:47:04;100923.38;;;-6.88;75.58
76586;BME280;65251;51.022;13.736;2022-12-18T02:47:39;100921.75;;;-6.90;75.46
76586;BME280;65251;51.022;13.736;2022-12-18T02:48:10;100918.31;;;-6.91;75.45
76586;BME280;65251;51.022;13.736;2022-12-18T02:48:42;100919.94;;;-6.88;76.28
76586;BME280;65251;51.022;13.736;2022-12-18T02:49:24;100932.84;;;-6.87;75.85
76586;BME280;65251;51.022;13.736;2022-12-18T02:50:05;100930.31;;;-6.88;75.58
76586;BME280;65251;51.022;13.736;2022-12-18T02:50:47;100920.78;;;-6.88;76.50
76586;BME280;65251;51.022;13.736;2022-12-18T02:51:30;100930.31;;;-6.88;76.67
76586;BME280;65251;51.022;13.736;2022-12-18T02:52:11;100933.75;;;-6.88;76.49
76586;BME280;65251;51.022;13.736;2022-12-18T02:52:59;100929.47;;;-6.89;75.78
76586;BME280;65251;51.022;13.736;2022-12-18T02:53:39;100926.78;;;-6.86;76.62
76586;BME280;65251;51.022;13.736;2022-12-18T02:54:23;100918.09;;;-6.85;75.83
76586;BME280;65251;51.022;13.736;2022-12-18T02:55:10;100929.38;;;-6.86;76.73